createdAt,value
2023-01-13T00:01:26.501Z,13.70
2023-01-13T00:03:54.711Z,11.80
2023-01-13T00:06:27.098Z,13.30
2023-01-13T00:08:55.141Z,13.20
2023-01-13T00:11:23.173Z,12.60
2023-01-13T00:13:51.194Z,14.30
2023-01-13T00:16:19.983Z,14.70
2023-01-13T00:18:49.121Z,12.40
2023-01-13T00:21:21.405Z,11.70
2023-01-13T00:23:49.485Z,15.80
2023-01-13T00:26:21.754Z,13.60
2023-01-13T00:28:49.746Z,11.00
2023-01-13T00:31:19.242Z,11.40
2023-01-13T00:33:49.132Z,11.30
2023-01-13T00:36:18.938Z,12.50
2023-01-13T00:38:47.629Z,14.40
2023-01-13T00:41:17.532Z,10.80
2023-01-13T00:43:45.389Z,11.60
2023-01-13T00:46:14.945Z,12.70
2023-01-13T00:48:44.648Z,12.90
2023-01-13T00:51:20.243Z,14.00
2023-01-13T00:53:49.849Z,12.20
2023-01-13T00:56:38.587Z,12.90
2023-01-13T00:59:11.573Z,11.80
2023-01-13T01:01:39.861Z,13.60
2023-01-13T01:04:07.923Z,11.50
2023-01-13T01:06:36.421Z,12.20
2023-01-13T01:09:04.436Z,14.20
2023-01-13T01:11:33.188Z,13.40
2023-01-13T01:14:02.628Z,11.70
2023-01-13T01:16:34.121Z,11.50
2023-01-13T01:19:02.418Z,11.10
2023-01-13T01:21:30.477Z,11.40
2023-01-13T01:24:00.490Z,12.70
2023-01-13T01:26:33.183Z,13.40
2023-01-13T01:29:02.173Z,13.50
2023-01-13T01:31:32.751Z,11.90
2023-01-13T01:34:01.562Z,13.70
2023-01-13T01:36:34.768Z,12.90
2023-01-13T01:39:02.721Z,10.00
2023-01-13T01:41:33.164Z,11.30
2023-01-13T01:44:10.240Z,12.70
2023-01-13T01:46:42.886Z,13.10
2023-01-13T01:49:18.126Z,10.90
2023-01-13T01:51:53.084Z,11.00
2023-01-13T01:54:25.322Z,10.40
2023-01-13T01:56:53.325Z,12.00
2023-01-13T01:59:21.072Z,11.50
2023-01-13T02:01:49.246Z,12.40
2023-01-13T04:03:11.208Z,11.00
2023-01-13T04:05:41.291Z,12.30
2023-01-13T04:08:21.247Z,12.60
2023-01-13T04:10:58.896Z,14.40
2023-01-13T04:13:28.970Z,15.50
2023-01-13T04:15:57.516Z,14.60
2023-01-13T04:18:30.260Z,16.80
2023-01-13T04:21:01.615Z,16.20
2023-01-13T04:23:29.677Z,16.70
2023-01-13T04:25:58.442Z,13.60
2023-01-13T04:28:26.292Z,14.80
2023-01-13T04:30:53.953Z,14.90
2023-01-13T04:33:21.910Z,13.10
2023-01-13T04:35:49.876Z,12.30
2023-01-13T04:38:18.725Z,11.90
2023-01-13T04:40:46.565Z,14.20
2023-01-13T04:43:15.563Z,11.50
2023-01-13T04:45:43.391Z,11.90
2023-01-13T04:48:11.019Z,12.20
2023-01-13T04:50:39.093Z,15.60
2023-01-13T04:53:07.185Z,12.90
2023-01-13T04:55:35.099Z,15.20
2023-01-13T04:58:07.381Z,13.60
2023-01-13T05:00:35.320Z,12.60
2023-01-13T05:03:03.177Z,13.80
2023-01-13T05:05:31.153Z,14.60
2023-01-13T05:08:02.178Z,15.60
2023-01-13T05:10:30.437Z,13.50
2023-01-13T05:13:17.935Z,12.70
2023-01-13T05:16:06.614Z,13.80
2023-01-13T05:18:35.260Z,15.10
2023-01-13T05:21:03.046Z,14.50
2023-01-13T05:23:49.360Z,15.90
2023-01-13T05:26:17.209Z,15.40
2023-01-13T05:28:44.791Z,14.60
2023-01-13T05:31:14.604Z,15.50
2023-01-13T05:33:42.261Z,14.70
2023-01-13T05:36:09.711Z,14.50
2023-01-13T05:38:39.232Z,12.90
2023-01-13T05:41:26.797Z,14.30
2023-01-13T05:43:54.307Z,11.90
2023-01-13T05:46:21.702Z,13.80
2023-01-13T05:48:49.106Z,14.50
2023-01-13T05:51:16.464Z,12.40
2023-01-13T05:53:43.906Z,12.40
2023-01-13T05:56:11.360Z,12.80
2023-01-13T05:58:38.835Z,12.80
2023-01-13T06:01:07.660Z,13.50
2023-01-13T06:03:37.268Z,12.20
2023-01-13T06:06:04.846Z,12.40
2023-01-13T06:08:33.862Z,13.30
2023-01-13T06:11:06.491Z,14.50
2023-01-13T08:00:05.185Z,11.90
2023-01-13T08:02:33.247Z,13.90
2023-01-13T08:05:02.788Z,15.50
2023-01-13T08:07:30.702Z,23.40
2023-01-13T08:09:58.306Z,22.10
2023-01-13T08:12:52.773Z,22.30
2023-01-13T08:15:25.228Z,20.00
2023-01-13T08:17:52.598Z,15.50
2023-01-13T08:20:19.997Z,14.70
2023-01-13T08:22:47.326Z,14.40
2023-01-13T08:25:14.799Z,14.90
2023-01-13T08:27:42.161Z,15.90
2023-01-13T08:30:11.280Z,15.50
2023-01-13T08:32:38.940Z,15.30
2023-01-13T08:35:07.556Z,16.40
2023-01-13T08:37:34.973Z,14.50
2023-01-13T08:40:02.775Z,17.10
2023-01-13T08:42:30.812Z,15.80
2023-01-13T08:44:58.235Z,19.30
2023-01-13T08:47:27.319Z,23.80
2023-01-13T08:49:54.815Z,25.20
2023-01-13T08:52:22.331Z,44.70
2023-01-13T08:54:49.743Z,20.50
2023-01-13T08:57:20.558Z,18.00
2023-01-13T08:59:48.019Z,15.80
2023-01-13T09:02:19.858Z,15.00
2023-01-13T09:04:48.420Z,16.00
2023-01-13T09:07:15.973Z,15.40
2023-01-13T09:09:43.955Z,14.70
2023-01-13T09:12:32.341Z,14.40
2023-01-13T09:15:00.111Z,14.70
2023-01-13T09:17:28.197Z,16.70
2023-01-13T09:19:56.156Z,14.20
2023-01-13T09:22:26.851Z,15.70
2023-01-13T09:24:54.824Z,20.40
2023-01-13T09:27:22.623Z,18.60
2023-01-13T09:29:50.233Z,15.60
2023-01-13T09:32:17.571Z,13.00
2023-01-13T09:35:01.012Z,20.80
2023-01-13T09:37:30.763Z,17.30
2023-01-13T09:39:58.077Z,24.90
2023-01-13T09:43:11.320Z,17.50
2023-01-13T09:45:53.780Z,13.80
2023-01-13T09:48:30.916Z,13.30
2023-01-13T09:51:16.535Z,12.90
2023-01-13T09:57:56.497Z,14.80
2023-01-13T10:00:32.529Z,10.80
2023-01-13T10:03:14.030Z,13.30
2023-01-13T10:06:04.483Z,17.10
2023-01-13T10:08:33.232Z,15.20
2023-01-13T10:11:25.450Z,15.30
2023-01-13T10:13:57.164Z,12.60
2023-01-13T10:16:53.754Z,12.90
2023-01-13T10:19:32.949Z,14.10
2023-01-13T10:22:21.527Z,12.30
2023-01-13T10:25:10.381Z,12.30
2023-01-13T10:27:40.528Z,10.50
2023-01-13T10:30:21.236Z,13.50
2023-01-13T10:32:59.772Z,10.90
2023-01-13T10:35:49.738Z,11.70
2023-01-13T10:38:22.593Z,15.20
2023-01-13T10:40:55.246Z,13.00
2023-01-13T10:43:23.718Z,14.50
2023-01-13T10:45:59.490Z,12.40
2023-01-13T10:48:44.224Z,11.90
2023-01-13T10:51:23.509Z,13.20
2023-01-13T10:54:24.126Z,14.40
2023-01-13T10:57:15.643Z,13.00
2023-01-13T10:59:43.836Z,14.60
2023-01-13T11:02:30.979Z,12.90
2023-01-13T11:05:02.933Z,12.80
2023-01-13T11:07:32.116Z,12.80
2023-01-13T11:10:24.281Z,11.40
2023-01-13T11:13:17.847Z,11.50
2023-01-13T11:16:10.698Z,13.50
2023-01-13T11:18:40.050Z,12.60
2023-01-13T11:21:17.767Z,12.00
2023-01-13T11:23:48.731Z,12.60
2023-01-13T11:26:29.553Z,11.10
2023-01-13T11:29:04.442Z,13.20
2023-01-13T11:31:36.677Z,12.60
2023-01-13T11:34:25.901Z,13.50
2023-01-13T11:36:55.091Z,13.20
2023-01-13T11:39:26.643Z,12.90
2023-01-13T11:42:21.133Z,12.40
2023-01-13T11:44:58.423Z,12.80
2023-01-13T11:47:26.062Z,11.90
2023-01-13T11:49:53.449Z,14.50
2023-01-13T11:52:58.907Z,11.90
2023-01-13T11:55:35.514Z,15.10
2023-01-13T11:58:12.375Z,12.80
2023-01-13T12:00:40.093Z,15.10
2023-01-13T12:03:18.933Z,15.00
2023-01-13T12:05:59.448Z,20.30
2023-01-13T12:08:48.464Z,14.90
2023-01-13T12:11:56.794Z,12.90
2023-01-13T12:14:27.733Z,11.20
2023-01-13T12:16:55.253Z,10.20
2023-01-13T12:19:25.825Z,12.00
2023-01-13T12:22:27.894Z,11.50
2023-01-13T12:25:22.103Z,11.50
2023-01-13T12:27:55.573Z,11.20
2023-01-13T12:30:48.146Z,10.20
2023-01-13T12:33:51.569Z,10.50
2023-01-13T12:36:27.743Z,16.50
2023-01-13T12:39:08.895Z,15.10
2023-01-13T12:42:04.862Z,11.90
2023-01-13T12:44:32.432Z,11.20
2023-01-13T12:46:59.920Z,10.90
2023-01-13T12:49:32.297Z,10.70
2023-01-13T12:52:06.893Z,11.90
2023-01-13T12:54:37.421Z,13.40
2023-01-13T12:57:20.635Z,13.50
2023-01-13T13:00:03.309Z,13.10
2023-01-13T13:02:41.627Z,17.60
2023-01-13T13:05:15.414Z,13.30
2023-01-13T13:07:49.594Z,24.30
2023-01-13T13:10:28.543Z,19.90
2023-01-13T13:13:21.317Z,19.50
2023-01-13T13:18:16.929Z,20.30
2023-01-13T13:20:55.430Z,19.00
2023-01-13T13:23:38.924Z,20.80
2023-01-13T13:26:45.290Z,18.90
2023-01-13T13:29:21.995Z,19.80
2023-01-13T13:32:01.632Z,19.50
2023-01-13T13:34:38.722Z,22.20
2023-01-13T13:37:28.253Z,21.40
2023-01-13T13:40:14.820Z,21.60
2023-01-13T13:43:03.021Z,18.40
2023-01-13T13:45:49.505Z,19.10
2023-01-13T13:48:28.141Z,20.70
2023-01-13T13:51:01.586Z,19.10
2023-01-13T13:53:37.073Z,23.20
2023-01-13T13:56:14.189Z,26.20
2023-01-13T13:58:41.814Z,19.90
2023-01-13T14:01:27.734Z,21.60
2023-01-13T14:04:07.592Z,23.70
2023-01-13T14:06:37.411Z,20.90
2023-01-13T14:09:15.399Z,19.20
2023-01-13T14:11:42.943Z,21.10
2023-01-13T14:14:14.916Z,20.30
2023-01-13T14:16:42.803Z,28.90
2023-01-13T14:19:33.423Z,26.70
2023-01-13T14:22:03.695Z,45.90
2023-01-13T14:24:31.770Z,27.70
2023-01-13T14:27:29.447Z,24.10
2023-01-13T14:29:59.078Z,19.80
2023-01-13T14:32:36.346Z,18.10
2023-01-13T14:35:07.686Z,16.70
2023-01-13T14:37:38.361Z,16.10
2023-01-13T14:40:06.349Z,16.80
2023-01-13T14:42:35.322Z,14.10
2023-01-13T14:45:03.440Z,15.40
2023-01-13T14:47:33.685Z,14.80
2023-01-13T14:50:06.026Z,16.20
2023-01-13T14:52:35.726Z,14.60
2023-01-13T14:55:10.082Z,13.00
2023-01-13T14:57:39.349Z,13.50
2023-01-13T15:00:16.162Z,17.20
2023-01-13T15:02:47.117Z,30.50
2023-01-13T15:05:23.943Z,37.20
2023-01-13T15:07:52.780Z,42.80
2023-01-13T15:10:54.552Z,69.40
2023-01-13T15:13:36.425Z,89.20
2023-01-13T15:18:39.801Z,75.00
2023-01-13T15:21:09.033Z,71.60
2023-01-13T15:23:38.267Z,39.40
2023-01-13T15:26:24.143Z,30.50
2023-01-13T15:28:52.775Z,20.10
2023-01-13T15:31:20.589Z,16.80
2023-01-13T15:33:48.917Z,15.40
2023-01-13T15:36:21.612Z,17.50
2023-01-13T15:38:49.487Z,15.40
2023-01-13T15:41:17.610Z,14.90
2023-01-13T15:44:03.957Z,14.40
2023-01-13T15:46:37.746Z,14.40
2023-01-13T15:49:15.768Z,14.90
2023-01-13T15:51:44.748Z,15.20
2023-01-13T15:54:12.673Z,16.70
2023-01-13T15:56:41.927Z,14.80
2023-01-13T15:59:16.556Z,17.20
2023-01-13T16:01:45.091Z,15.20
2023-01-13T16:04:13.084Z,14.60
2023-01-13T16:06:40.924Z,15.90
2023-01-13T16:09:12.948Z,14.20
2023-01-13T16:11:41.067Z,15.80
2023-01-13T16:14:08.651Z,13.70
2023-01-13T16:16:37.045Z,14.60
2023-01-13T16:19:04.791Z,14.90
2023-01-13T16:21:32.600Z,14.30
2023-01-13T16:24:00.275Z,14.00
2023-01-13T16:26:32.471Z,15.40
2023-01-13T16:29:00.073Z,16.70
2023-01-13T16:31:31.531Z,14.20
2023-01-13T16:36:28.208Z,12.70
2023-01-13T16:38:57.647Z,13.10
2023-01-13T16:41:25.508Z,14.40
2023-01-13T16:43:53.334Z,13.60
2023-01-13T16:46:25.629Z,12.60
2023-01-13T16:48:55.062Z,14.30
2023-01-13T16:51:23.232Z,14.70
2023-01-13T16:53:50.854Z,13.40
2023-01-13T16:56:27.087Z,12.80
2023-01-13T16:58:56.947Z,13.90
2023-01-13T17:01:28.265Z,14.30
2023-01-13T17:03:56.286Z,12.90
2023-01-13T17:06:54.411Z,16.10
2023-01-13T17:09:24.884Z,14.50
2023-01-13T17:11:53.078Z,13.90
2023-01-13T17:14:23.104Z,15.60
2023-01-13T17:16:53.174Z,16.90
2023-01-13T17:19:22.926Z,15.80
2023-01-13T17:21:53.560Z,17.10
2023-01-13T17:24:21.409Z,14.10
2023-01-13T17:26:50.131Z,22.70
2023-01-13T17:29:20.430Z,22.50
2023-01-13T17:31:49.246Z,30.00
2023-01-13T17:34:17.213Z,29.20
2023-01-13T17:36:44.794Z,46.60
2023-01-13T17:39:20.096Z,60.30
2023-01-13T17:41:47.673Z,42.90
2023-01-13T17:44:16.207Z,40.20
2023-01-13T17:46:45.097Z,45.60
2023-01-13T17:49:14.293Z,34.50
2023-01-13T22:02:24.462Z,16.10
2023-01-13T22:04:53.482Z,16.50
2023-01-13T22:07:22.082Z,19.90
2023-01-13T22:09:49.995Z,20.80
2023-01-13T22:12:22.845Z,26.30
2023-01-13T22:14:52.253Z,57.60
2023-01-13T22:17:23.834Z,37.70
2023-01-13T22:22:21.956Z,40.00
2023-01-13T22:24:51.417Z,31.00
2023-01-13T22:27:24.120Z,27.40
2023-01-13T22:29:52.894Z,21.70
2023-01-13T22:32:21.088Z,19.80
2023-01-13T22:34:49.096Z,18.90
2023-01-13T22:37:17.064Z,19.50
2023-01-13T22:39:44.724Z,16.70
2023-01-13T22:42:12.497Z,17.30
2023-01-13T22:44:40.312Z,17.60
2023-01-13T22:47:08.999Z,17.70
2023-01-13T22:49:36.840Z,19.00
2023-01-13T22:52:04.666Z,17.40
2023-01-13T22:54:32.358Z,18.80
2023-01-13T22:57:00.080Z,19.10
2023-01-13T22:59:27.927Z,19.70
2023-01-13T23:01:55.546Z,20.20
2023-01-13T23:04:23.640Z,18.50
2023-01-13T23:06:51.643Z,18.70
2023-01-13T23:09:19.314Z,17.50
2023-01-13T23:11:47.906Z,19.00
2023-01-13T23:14:15.799Z,18.20
2023-01-13T23:16:43.601Z,19.50
2023-01-13T23:19:14.423Z,18.50
2023-01-13T23:21:42.248Z,17.90
2023-01-13T23:24:10.425Z,20.40
2023-01-13T23:26:38.228Z,19.80
2023-01-13T23:29:07.968Z,19.40
2023-01-13T23:31:35.626Z,19.40
2023-01-13T23:34:03.334Z,16.90
2023-01-13T23:36:31.247Z,18.60
2023-01-13T23:38:59.759Z,19.70
2023-01-13T23:41:28.197Z,22.70
2023-01-13T23:44:00.266Z,24.70
2023-01-13T23:46:29.333Z,20.90
2023-01-13T23:48:57.269Z,19.40
2023-01-13T23:51:26.748Z,21.30
2023-01-13T23:53:54.617Z,21.60
2023-01-13T23:56:27.402Z,19.50
2023-01-13T23:58:55.484Z,21.80
